createdAt,value
2022-08-22T00:01:32.335Z,17.46
2022-08-22T00:03:03.075Z,19.20
2022-08-22T00:03:07.175Z,18.15
2022-08-22T00:03:08.440Z,18.96
2022-08-22T00:03:15.293Z,17.53
2022-08-22T00:03:15.976Z,17.46
2022-08-22T00:04:23.898Z,17.47
2022-08-22T00:07:02.673Z,17.43
2022-08-22T00:09:53.201Z,17.35
2022-08-22T00:12:50.636Z,17.35
2022-08-22T00:15:42.650Z,17.31
2022-08-22T00:18:15.191Z,17.20
2022-08-22T00:20:49.452Z,17.25
2022-08-22T00:23:27.719Z,17.35
2022-08-22T00:26:09.551Z,17.29
2022-08-22T00:28:38.674Z,17.25
2022-08-22T00:31:17.595Z,17.25
2022-08-22T00:34:04.565Z,17.23
2022-08-22T00:36:37.426Z,17.17
2022-08-22T00:39:16.602Z,17.11
2022-08-22T00:41:55.243Z,17.12
2022-08-22T00:44:40.394Z,17.09
2022-08-22T00:47:15.738Z,17.08
2022-08-22T00:49:56.029Z,17.08
2022-08-22T00:52:44.457Z,17.06
2022-08-22T00:55:20.708Z,17.05
2022-08-22T00:58:05.970Z,17.04
2022-08-22T01:00:40.843Z,17.01
2022-08-22T01:03:38.409Z,16.94
2022-08-22T01:06:45.327Z,17.02
2022-08-22T01:09:21.249Z,17.06
2022-08-22T01:12:09.592Z,17.09
2022-08-22T01:14:44.353Z,17.04
2022-08-22T01:17:54.486Z,17.05
2022-08-22T01:20:37.166Z,17.09
2022-08-22T01:23:25.658Z,17.09
2022-08-22T01:26:07.490Z,17.11
2022-08-22T01:29:16.084Z,17.10
2022-08-22T01:32:20.997Z,17.10
2022-08-22T01:35:03.981Z,17.01
2022-08-22T01:37:54.601Z,17.02
2022-08-22T01:40:27.243Z,17.02
2022-08-22T01:42:53.995Z,17.00
2022-08-22T01:45:41.938Z,17.01
2022-08-22T01:48:40.541Z,16.98
2022-08-22T01:51:37.133Z,17.01
2022-08-22T01:54:13.060Z,17.00
2022-08-22T01:56:45.821Z,16.99
2022-08-22T01:59:33.754Z,16.98
2022-08-22T02:02:20.247Z,16.97
2022-08-22T02:04:55.861Z,16.92
2022-08-22T02:07:32.472Z,16.86
2022-08-22T02:10:48.282Z,16.85
2022-08-22T02:13:14.975Z,16.81
2022-08-22T02:15:41.690Z,16.80
2022-08-22T02:18:20.975Z,16.74
2022-08-22T02:20:47.662Z,16.73
2022-08-22T02:23:35.578Z,16.72
2022-08-22T02:26:02.320Z,16.69
2022-08-22T02:28:57.995Z,16.67
2022-08-22T02:31:42.438Z,16.63
2022-08-22T02:34:35.521Z,16.60
2022-08-22T02:37:21.907Z,16.53
2022-08-22T02:39:57.140Z,16.54
2022-08-22T02:42:33.824Z,16.53
2022-08-22T02:45:15.550Z,16.51
2022-08-22T02:48:06.536Z,16.47
2022-08-22T02:50:43.209Z,16.50
2022-08-22T02:53:32.383Z,16.49
2022-08-22T02:56:11.553Z,16.50
2022-08-22T02:59:00.036Z,16.40
2022-08-22T03:01:29.964Z,16.53
2022-08-22T03:04:26.876Z,16.55
2022-08-22T03:07:11.883Z,16.56
2022-08-22T03:10:01.689Z,16.55
2022-08-22T03:12:40.288Z,16.53
2022-08-22T03:15:18.571Z,16.51
2022-08-22T03:17:57.182Z,16.46
2022-08-22T03:20:54.752Z,16.39
2022-08-22T03:23:36.381Z,16.35
2022-08-22T03:26:44.993Z,16.32
2022-08-22T03:29:19.489Z,16.25
2022-08-22T03:32:12.839Z,16.23
2022-08-22T03:35:05.714Z,16.00
2022-08-22T03:37:41.161Z,16.06
2022-08-22T03:40:21.749Z,16.07
2022-08-22T03:43:20.791Z,16.08
2022-08-22T03:46:22.944Z,16.10
2022-08-22T03:49:23.442Z,16.10
2022-08-22T03:52:27.404Z,16.10
2022-08-22T03:55:19.108Z,16.09
2022-08-22T03:58:19.168Z,16.07
2022-08-22T04:01:11.525Z,16.03
2022-08-22T04:03:59.463Z,16.02
2022-08-22T04:07:28.440Z,16.00
2022-08-22T04:10:20.040Z,15.98
2022-08-22T04:12:59.219Z,15.92
2022-08-22T04:16:04.226Z,15.92
2022-08-22T04:18:45.414Z,15.91
2022-08-22T04:21:33.055Z,15.91
2022-08-22T04:24:30.106Z,15.90
2022-08-22T04:26:56.899Z,15.90
2022-08-22T04:29:42.939Z,15.85
2022-08-22T04:32:17.326Z,15.89
2022-08-22T04:34:59.277Z,15.87
2022-08-22T04:37:29.083Z,15.87
2022-08-22T04:40:17.124Z,15.88
2022-08-22T04:42:53.216Z,15.87
2022-08-22T04:45:25.577Z,15.91
2022-08-22T04:47:57.488Z,15.94
2022-08-22T04:50:33.317Z,15.98
2022-08-22T04:53:13.947Z,16.01
2022-08-22T04:56:31.733Z,16.03
2022-08-22T04:59:04.665Z,16.06
2022-08-22T05:01:55.068Z,16.10
2022-08-22T05:04:31.506Z,16.10
2022-08-22T05:07:18.257Z,16.18
2022-08-22T05:09:49.501Z,16.24
2022-08-22T05:12:23.121Z,16.22
2022-08-22T05:14:59.628Z,16.29
2022-08-22T05:17:32.200Z,16.32
2022-08-22T05:20:07.978Z,16.35
2022-08-22T05:22:40.358Z,16.36
2022-08-22T05:25:11.426Z,16.37
2022-08-22T05:27:49.980Z,16.30
2022-08-22T05:30:27.058Z,16.38
2022-08-22T05:33:05.648Z,16.41
2022-08-22T05:35:39.925Z,16.43
2022-08-22T05:38:12.471Z,16.44
2022-08-22T05:40:40.906Z,16.41
2022-08-22T05:43:11.341Z,16.38
2022-08-22T05:45:40.637Z,16.38
2022-08-22T05:48:20.428Z,16.35
2022-08-22T05:50:56.734Z,16.33
2022-08-22T05:53:32.126Z,16.35
2022-08-22T05:56:03.415Z,16.31
2022-08-22T05:58:39.117Z,16.31
2022-08-22T06:01:24.206Z,16.26
2022-08-22T06:04:11.842Z,16.31
2022-08-22T06:06:48.957Z,16.32
2022-08-22T06:09:25.748Z,16.36
2022-08-22T06:12:08.429Z,16.39
2022-08-22T06:14:52.897Z,16.37
2022-08-22T06:17:29.016Z,16.42
2022-08-22T06:19:56.082Z,16.40
2022-08-22T06:22:27.040Z,16.39
2022-08-22T06:24:58.992Z,16.40
2022-08-22T06:27:31.389Z,16.46
2022-08-22T06:30:03.305Z,16.44
2022-08-22T06:32:59.290Z,16.49
2022-08-22T06:35:56.839Z,16.51
2022-08-22T06:38:29.666Z,16.71
2022-08-22T06:41:00.578Z,16.78
2022-08-22T06:43:38.696Z,16.81
2022-08-22T06:46:07.538Z,16.88
2022-08-22T06:48:36.323Z,16.94
2022-08-22T06:51:07.223Z,17.10
2022-08-22T06:53:48.265Z,17.16
2022-08-22T06:56:25.618Z,17.22
2022-08-22T06:58:56.566Z,17.28
2022-08-22T07:01:27.249Z,17.31
2022-08-22T07:03:59.022Z,17.32
2022-08-22T07:06:37.137Z,17.33
2022-08-22T07:09:07.039Z,17.24
2022-08-22T07:11:39.733Z,17.26
2022-08-22T07:14:12.772Z,17.31
2022-08-22T07:16:44.387Z,17.39
2022-08-22T07:19:25.838Z,17.49
2022-08-22T07:21:53.391Z,17.54
2022-08-22T07:24:31.902Z,17.62
2022-08-22T07:27:08.921Z,17.65
2022-08-22T07:29:44.957Z,17.65
2022-08-22T07:32:16.268Z,17.66
2022-08-22T07:35:07.825Z,17.79
2022-08-22T07:37:53.722Z,17.91
2022-08-22T07:40:53.756Z,17.91
2022-08-22T07:43:30.123Z,18.01
2022-08-22T07:46:14.382Z,17.90
2022-08-22T07:49:07.673Z,17.83
2022-08-22T07:51:50.683Z,17.73
2022-08-22T07:55:01.240Z,17.81
2022-08-22T07:57:49.456Z,17.85
2022-08-22T08:00:19.871Z,17.89
2022-08-22T08:02:58.742Z,18.03
2022-08-22T08:05:29.497Z,18.04
2022-08-22T08:07:57.089Z,17.98
2022-08-22T08:10:31.868Z,18.01
2022-08-22T08:13:03.808Z,18.02
2022-08-22T08:15:33.083Z,17.98
2022-08-22T08:18:05.602Z,18.05
2022-08-22T08:20:35.664Z,18.08
2022-08-22T08:23:04.603Z,18.15
2022-08-22T08:25:37.161Z,18.17
2022-08-22T08:28:23.951Z,18.17
2022-08-22T08:30:59.718Z,18.16
2022-08-22T08:33:33.564Z,18.08
2022-08-22T08:36:33.472Z,18.22
2022-08-22T08:39:14.086Z,18.27
2022-08-22T08:42:15.358Z,18.27
2022-08-22T08:44:48.672Z,18.30
2022-08-22T08:47:39.888Z,18.16
2022-08-22T08:50:19.741Z,18.27
2022-08-22T08:53:17.630Z,18.32
2022-08-22T08:56:07.193Z,18.30
2022-08-22T08:58:52.725Z,18.19
2022-08-22T09:01:40.788Z,18.37
2022-08-22T09:04:15.227Z,18.45
2022-08-22T09:07:18.824Z,18.56
2022-08-22T09:10:22.181Z,18.73
2022-08-22T09:13:23.069Z,18.84
2022-08-22T09:16:10.863Z,18.96
2022-08-22T09:18:37.536Z,18.98
2022-08-22T09:21:36.236Z,19.13
2022-08-22T09:24:10.829Z,19.23
2022-08-22T09:27:08.460Z,19.25
2022-08-22T09:29:51.501Z,19.29
2022-08-22T09:32:28.756Z,19.16
2022-08-22T09:35:07.449Z,19.36
2022-08-22T09:37:46.678Z,19.46
2022-08-22T09:43:21.185Z,19.66
2022-08-22T09:46:22.543Z,19.83
2022-08-22T09:49:18.054Z,19.93
2022-08-22T09:51:55.285Z,20.06
2022-08-22T09:54:53.913Z,20.03
2022-08-22T09:57:52.490Z,20.13
2022-08-22T10:00:30.016Z,20.33
2022-08-22T10:03:28.671Z,20.43
2022-08-22T10:06:13.358Z,20.50
2022-08-22T10:09:31.447Z,20.55
2022-08-22T10:12:15.261Z,20.92
2022-08-22T10:15:16.774Z,21.10
2022-08-22T10:18:06.286Z,21.22
2022-08-22T10:20:48.986Z,21.50
2022-08-22T10:23:29.727Z,21.68
2022-08-22T10:26:25.913Z,21.94
